Time;durP1;ratioP1;P1;durP2;ratioP2;P2;SDS_P1;SDS_P2;PMS_P1;PMS_P2;Temp;Humidity;BMP_temperature;BMP_pressure;BME280_temperature;BME280_humidity;BME280_pressure;Samples;Min_cycle;Max_cycle;Signal;HPM_P1;HPM_P2
2023/04/04 05:58:01;;;;;;;3.03;2.40;;;-3.30;99.90;;;;;;5132580;27;20267;-73
2023/04/04 06:29:14;;;;;;;4.13;3.10;;;-2.50;99.90;;;;;;5132280;27;20301;-74
2023/04/04 07:28:33;;;;;;;4.30;3.13;;;1.70;99.90;;;;;;5132523;27;20323;-74
2023/04/04 07:43:39;;;;;;;4.97;2.97;;;3.10;99.90;;;;;;5132415;27;20269;-74
2023/04/04 07:47:55;;;;;;;4.73;3.10;;;3.70;99.90;;;;;;5132363;27;20265;-74
2023/04/04 07:51:50;;;;;;;9.07;3.53;;;3.90;99.90;;;;;;5111428;27;20536;-76
2023/04/04 07:54:16;;;;;;;3.43;2.97;;;3.80;99.90;;;;;;5111135;28;20225;-75
2023/04/04 07:56:42;;;;;;;4.17;3.00;;;3.70;99.90;;;;;;5111034;28;20309;-75
2023/04/04 07:59:07;;;;;;;3.90;2.73;;;3.20;99.90;;;;;;5111071;28;20172;-76
2023/04/04 08:01:33;;;;;;;3.87;2.93;;;3.60;99.90;;;;;;5110817;28;20608;-75
2023/04/04 08:03:59;;;;;;;4.37;2.90;;;4.40;99.70;;;;;;5111688;28;20245;-75
2023/04/04 08:06:25;;;;;;;4.90;2.83;;;4.90;98.80;;;;;;5110837;28;20184;-75
2023/04/04 08:08:51;;;;;;;3.23;2.30;;;5.30;97.30;;;;;;5110925;28;20181;-75
2023/04/04 08:11:17;;;;;;;3.53;2.63;;;5.50;95.80;;;;;;5110990;28;20620;-76
2023/04/04 08:13:43;;;;;;;3.37;2.83;;;4.70;94.40;;;;;;5110800;28;20640;-75
2023/04/04 08:16:08;;;;;;;4.63;2.83;;;3.90;95.20;;;;;;5111483;28;20177;-75
2023/04/04 08:18:34;;;;;;;5.63;3.10;;;3.60;96.80;;;;;;5111092;28;20714;-75
2023/04/04 08:21:00;;;;;;;3.43;2.43;;;4.50;98.20;;;;;;5110609;28;20185;-75
2023/04/04 08:23:26;;;;;;;3.73;2.70;;;5.50;93.80;;;;;;5110771;28;20193;-75
2023/04/04 08:25:52;;;;;;;2.53;2.10;;;6.00;92.80;;;;;;5110737;28;20309;-75
2023/04/04 08:28:18;;;;;;;3.47;2.50;;;4.90;92.10;;;;;;5110527;28;20169;-75
2023/04/04 08:30:44;;;;;;;4.17;2.57;;;3.10;92.50;;;;;;5110458;28;20209;-75
2023/04/04 08:33:09;;;;;;;3.40;2.40;;;2.20;95.30;;;;;;5108978;28;20197;-75
2023/04/04 08:35:35;;;;;;;3.00;2.30;;;3.40;96.00;;;;;;5110378;28;20264;-75
2023/04/04 08:38:04;;;;;;;5.27;2.50;;;4.40;93.80;;;;;;5109028;28;20208;-76
2023/04/04 08:40:31;;;;;;;4.73;2.77;;;3.80;92.20;;;;;;5110120;28;20183;-75
2023/04/04 08:42:58;;;;;;;4.57;2.63;;;2.60;92.90;;;;;;5110236;28;20197;-75
2023/04/04 08:45:26;;;;;;;2.83;2.40;;;2.20;92.00;;;;;;5110126;28;20216;-75
2023/04/04 08:47:55;;;;;;;2.77;2.20;;;2.10;93.80;;;;;;5110382;28;20174;-75
2023/04/04 08:50:21;;;;;;;3.70;2.17;;;3.20;93.90;;;;;;5109703;28;20634;-76
2023/04/04 08:52:48;;;;;;;2.43;2.20;;;4.90;91.60;;;;;;5108628;28;20234;-75
2023/04/04 08:55:14;;;;;;;4.77;2.63;;;5.00;91.20;;;;;;5109997;28;20272;-75
2023/04/04 08:57:41;;;;;;;6.40;2.77;;;4.80;90.40;;;;;;5110226;28;20253;-75
2023/04/04 09:00:07;;;;;;;2.93;2.30;;;4.20;90.50;;;;;;5109931;28;20170;-75
2023/04/04 09:02:44;;;;;;;3.50;2.60;;;3.80;92.40;;;;;;5098394;28;20223;-75
2023/04/04 09:05:12;;;;;;;4.90;2.23;;;4.30;92.40;;;;;;5096705;28;20176;-75
2023/04/04 09:07:38;;;;;;;2.63;2.13;;;4.80;91.80;;;;;;5096431;28;20211;-75
2023/04/04 09:10:04;;;;;;;3.87;2.47;;;4.90;90.30;;;;;;5095892;28;20676;-76
2023/04/04 09:12:33;;;;;;;4.90;2.57;;;5.00;90.20;;;;;;5096129;28;20328;-75
2023/04/04 09:15:00;;;;;;;3.90;2.10;;;4.70;90.10;;;;;;5096339;28;20211;-75
2023/04/04 09:17:26;;;;;;;2.53;2.10;;;4.80;88.20;;;;;;5096067;28;20571;-76
2023/04/04 09:19:53;;;;;;;5.23;2.47;;;5.30;88.30;;;;;;5095866;28;20676;-75
2023/04/04 09:22:18;;;;;;;3.60;2.47;;;5.60;87.70;;;;;;5095842;28;20192;-75
2023/04/04 09:24:44;;;;;;;3.87;2.50;;;5.70;87.20;;;;;;5095828;28;20176;-75
2023/04/04 09:27:11;;;;;;;2.57;1.80;;;6.00;85.40;;;;;;5094535;28;20210;-75
2023/04/04 09:29:38;;;;;;;4.07;2.00;;;5.80;81.50;;;;;;5095545;28;20201;-76
2023/04/04 09:32:13;;;;;;;5.83;4.10;;;5.90;83.70;;;;;;5095529;28;20216;-75
2023/04/04 09:34:39;;;;;;;3.43;2.50;;;6.20;86.50;;;;;;5094404;28;20168;-75
2023/04/04 09:37:05;;;;;;;5.03;2.10;;;6.50;83.10;;;;;;5095589;28;20184;-76
2023/04/04 09:39:37;;;;;;;3.10;1.70;;;6.50;82.00;;;;;;5094100;28;20179;-76
2023/04/04 09:42:03;;;;;;;2.87;2.10;;;6.60;85.40;;;;;;5095382;28;20582;-76
2023/04/04 09:44:32;;;;;;;4.77;2.00;;;6.50;79.00;;;;;;5095532;28;20172;-76
2023/04/04 09:47:27;;;;;;;4.27;2.10;;;5.40;79.30;;;;;;5095384;28;20531;-76
2023/04/04 09:49:57;;;;;;;2.30;1.80;;;5.70;88.00;;;;;;5095538;28;20211;-76
2023/04/04 09:52:22;;;;;;;8.20;2.20;;;6.20;80.20;;;;;;5095269;28;20188;-76
2023/04/04 09:54:55;;;;;;;2.30;1.90;;;6.30;80.30;;;;;;5095244;28;20529;-76
2023/04/04 09:57:21;;;;;;;2.63;2.17;;;6.40;84.80;;;;;;5095671;28;20191;-76
2023/04/04 09:59:47;;;;;;;2.30;1.70;;;6.30;80.80;;;;;;5095053;28;20255;-76
2023/04/04 10:02:13;;;;;;;3.43;2.23;;;5.90;77.80;;;;;;5093830;28;20206;-76
2023/04/04 10:04:38;;;;;;;2.90;2.20;;;5.00;79.60;;;;;;5095112;28;20638;-75
2023/04/04 10:07:05;;;;;;;3.07;2.10;;;5.10;84.80;;;;;;5095327;28;20264;-76
2023/04/04 10:09:31;;;;;;;2.87;2.00;;;5.60;84.90;;;;;;5094822;28;20176;-76
2023/04/04 10:12:10;;;;;;;3.97;2.13;;;6.00;86.50;;;;;;5094770;28;20246;-76
2023/04/04 10:14:36;;;;;;;3.97;2.30;;;5.80;84.10;;;;;;5094276;28;20164;-76
2023/04/04 10:17:09;;;;;;;3.80;2.40;;;6.00;82.00;;;;;;5094724;28;20179;-76
2023/04/04 10:19:37;;;;;;;4.13;3.00;;;5.70;80.20;;;;;;5094521;28;20247;-75
2023/04/04 10:22:04;;;;;;;4.37;2.13;;;6.00;82.10;;;;;;5094920;28;20596;-76
2023/04/04 10:24:31;;;;;;;3.47;2.40;;;6.60;81.10;;;;;;5094709;28;20702;-75
2023/04/04 10:26:57;;;;;;;6.73;2.10;;;6.90;79.40;;;;;;5094644;28;20247;-76
2023/04/04 10:29:23;;;;;;;2.97;2.37;;;6.50;76.80;;;;;;5095050;28;20659;-76
2023/04/04 10:31:57;;;;;;;2.43;1.93;;;6.60;80.30;;;;;;5094221;28;20703;-76
2023/04/04 10:34:31;;;;;;;3.33;2.20;;;6.90;76.80;;;;;;5094579;28;20520;-76
2023/04/04 10:37:22;;;;;;;5.20;2.20;;;7.30;79.20;;;;;;5094859;28;20617;-76
2023/04/04 10:39:56;;;;;;;4.70;4.30;;;7.00;81.00;;;;;;5094768;28;20175;-75
2023/04/04 10:42:25;;;;;;;3.17;2.20;;;7.10;78.90;;;;;;5094276;28;20192;-76
2023/04/04 10:44:50;;;;;;;3.73;2.37;;;7.60;80.80;;;;;;5094617;28;20494;-76
2023/04/04 10:47:20;;;;;;;3.97;2.37;;;7.80;77.80;;;;;;5094587;28;20585;-76
2023/04/04 10:49:47;;;;;;;4.90;2.60;;;6.60;75.30;;;;;;5093904;28;20714;-76
2023/04/04 10:52:27;;;;;;;3.20;2.43;;;6.20;78.20;;;;;;5094168;28;20280;-76
2023/04/04 10:54:57;;;;;;;2.53;2.23;;;6.00;81.20;;;;;;5094468;28;20156;-76
2023/04/04 10:57:24;;;;;;;2.93;1.90;;;6.50;78.30;;;;;;5092936;28;20164;-76
2023/04/04 11:00:08;;;;;;;3.50;2.30;;;6.90;79.90;;;;;;5093973;28;20668;-76
2023/04/04 11:02:46;;;;;;;4.70;2.27;;;7.10;77.50;;;;;;5093897;28;20545;-76
2023/04/04 11:05:18;;;;;;;3.77;2.30;;;7.50;77.40;;;;;;5092655;28;20646;-76
2023/04/04 11:07:45;;;;;;;6.00;2.23;;;7.20;73.80;;;;;;5094190;28;20159;-76
2023/04/04 11:10:32;;;;;;;4.60;2.40;;;6.10;73.50;;;;;;5093734;28;20196;-76
2023/04/04 11:13:07;;;;;;;4.03;3.23;;;5.80;79.70;;;;;;5094118;28;20265;-76
2023/04/04 11:15:58;;;;;;;6.00;2.67;;;6.30;78.60;;;;;;5092566;28;20160;-76
2023/04/04 11:18:40;;;;;;;6.03;2.63;;;7.00;83.20;;;;;;5094047;28;20165;-76
2023/04/04 11:21:13;;;;;;;3.13;2.20;;;7.40;77.20;;;;;;5093581;28;20180;-77
2023/04/04 11:23:45;;;;;;;26.73;24.27;;;7.30;73.80;;;;;;5094046;28;20157;-77
2023/04/04 11:26:10;;;;;;;3.37;2.30;;;7.30;76.20;;;;;;5093498;28;20184;-76
2023/04/04 11:28:36;;;;;;;2.77;2.13;;;7.50;76.30;;;;;;5092325;28;20653;-76
2023/04/04 11:31:17;;;;;;;5.10;2.27;;;7.60;71.00;;;;;;5093453;28;20201;-76
2023/04/04 11:34:04;;;;;;;2.60;2.30;;;7.70;75.20;;;;;;5092515;28;20172;-76
2023/04/04 11:36:36;;;;;;;2.93;2.60;;;8.20;73.00;;;;;;5092356;28;20177;-77
2023/04/04 11:39:06;;;;;;;4.33;2.60;;;8.60;72.40;;;;;;5093636;28;20152;-76
2023/04/04 11:41:51;;;;;;;3.97;2.30;;;9.10;70.30;;;;;;5093238;28;20196;-76
2023/04/04 11:44:18;;;;;;;2.90;2.27;;;9.20;68.20;;;;;;5093764;28;20176;-76
2023/04/04 11:46:47;;;;;;;6.83;2.83;;;8.50;63.90;;;;;;5094030;28;20220;-76
2023/04/04 11:49:14;;;;;;;3.23;2.53;;;7.90;68.00;;;;;;5093634;28;20176;-76
2023/04/04 11:51:40;;;;;;;3.20;2.47;;;8.80;70.70;;;;;;5091599;28;20212;-76
2023/04/04 11:54:16;;;;;;;4.60;2.97;;;8.90;69.40;;;;;;5093542;28;20175;-76
2023/04/04 11:56:43;;;;;;;4.40;2.30;;;8.60;66.10;;;;;;5093256;28;20168;-75
2023/04/04 11:59:18;;;;;;;3.37;2.50;;;7.70;70.00;;;;;;5093294;28;20247;-75
2023/04/04 12:01:44;;;;;;;8.97;4.07;;;8.10;68.80;;;;;;5091723;28;20195;-75
2023/04/04 12:04:10;;;;;;;5.00;2.83;;;7.90;67.40;;;;;;5091934;28;20188;-75
2023/04/04 12:06:37;;;;;;;6.43;2.83;;;8.50;69.40;;;;;;5093476;28;20183;-76
2023/04/04 12:09:04;;;;;;;3.37;2.40;;;9.40;65.70;;;;;;5093682;28;20247;-76
2023/04/04 12:11:33;;;;;;;4.37;2.67;;;9.20;63.10;;;;;;5092740;28;20202;-76
2023/04/04 12:13:59;;;;;;;3.33;2.63;;;8.80;62.10;;;;;;5093124;28;20234;-76
2023/04/04 12:16:27;;;;;;;4.87;2.50;;;9.10;68.50;;;;;;5093037;28;20168;-76
2023/04/04 12:18:52;;;;;;;3.30;2.50;;;9.40;62.90;;;;;;5091828;28;20204;-76
2023/04/04 12:21:19;;;;;;;4.10;2.60;;;9.30;64.10;;;;;;5092744;28;20215;-76
2023/04/04 12:23:47;;;;;;;3.63;2.50;;;9.60;63.90;;;;;;5093320;28;20179;-76
2023/04/04 12:26:15;;;;;;;3.13;2.63;;;9.60;60.90;;;;;;5093099;28;20179;-76
2023/04/04 12:28:44;;;;;;;4.20;2.87;;;9.90;61.10;;;;;;5093025;28;20168;-76
2023/04/04 12:31:11;;;;;;;3.47;2.40;;;9.90;60.70;;;;;;5092769;28;20191;-76
2023/04/04 12:33:40;;;;;;;4.67;2.40;;;10.30;56.40;;;;;;5092960;28;20230;-76
2023/04/04 12:36:06;;;;;;;5.03;2.80;;;11.00;61.60;;;;;;5092945;28;20180;-76
2023/04/04 12:38:32;;;;;;;4.23;2.30;;;11.10;57.80;;;;;;5096453;28;20228;-76
2023/04/04 12:40:59;;;;;;;4.20;2.90;;;10.10;60.70;;;;;;5096681;28;20176;-76
2023/04/04 12:43:28;;;;;;;6.47;3.10;;;10.80;60.50;;;;;;5096621;28;20587;-76
2023/04/04 12:45:56;;;;;;;5.10;3.10;;;11.40;57.70;;;;;;5096673;28;20164;-76
2023/04/04 12:48:29;;;;;;;5.60;2.97;;;11.70;58.10;;;;;;5096602;28;20230;-76
2023/04/04 12:50:59;;;;;;;4.93;3.17;;;12.00;55.90;;;;;;5094831;28;20258;-76
2023/04/04 12:53:27;;;;;;;4.23;2.70;;;12.10;57.20;;;;;;5096439;28;20189;-76
2023/04/04 12:55:55;;;;;;;3.33;2.60;;;12.50;55.60;;;;;;5096364;28;20218;-76
2023/04/04 12:58:23;;;;;;;2.87;2.43;;;12.90;54.70;;;;;;5095109;28;20177;-76
2023/04/04 13:00:53;;;;;;;5.77;3.43;;;12.70;54.00;;;;;;5096155;28;20179;-76
2023/04/04 13:03:23;;;;;;;3.83;2.63;;;12.60;53.60;;;;;;5096159;28;20192;-76
2023/04/04 13:05:51;;;;;;;5.33;3.50;;;10.70;51.90;;;;;;5096273;28;20179;-76
2023/04/04 13:08:17;;;;;;;5.83;3.30;;;8.90;57.20;;;;;;5096573;28;20259;-76
2023/04/04 13:11:02;;;;;;;5.37;3.67;;;10.20;58.80;;;;;;5095828;28;20193;-76
2023/04/04 13:13:41;;;;;;;5.00;3.17;;;11.10;53.80;;;;;;5096499;28;20192;-76
2023/04/04 13:16:13;;;;;;;6.40;2.93;;;11.80;54.10;;;;;;5096742;28;20164;-77
2023/04/04 13:18:42;;;;;;;4.37;3.47;;;12.30;59.50;;;;;;5096041;28;20221;-76
2023/04/04 13:21:09;;;;;;;6.37;2.90;;;11.80;54.20;;;;;;5094581;28;20202;-76
2023/04/04 13:23:40;;;;;;;3.20;2.90;;;10.60;56.90;;;;;;5095779;28;20192;-76
2023/04/04 13:26:08;;;;;;;5.90;3.03;;;11.10;54.60;;;;;;5095918;28;20180;-76
2023/04/04 13:28:35;;;;;;;5.47;3.30;;;12.20;56.90;;;;;;5095651;28;20539;-76
2023/04/04 13:31:02;;;;;;;3.40;2.97;;;11.30;52.80;;;;;;5095567;28;20203;-76
2023/04/04 13:33:27;;;;;;;4.00;2.80;;;9.40;55.70;;;;;;5094550;28;20191;-75
2023/04/04 13:35:53;;;;;;;3.57;2.87;;;10.00;54.20;;;;;;5095970;28;20503;-76
2023/04/04 13:38:19;;;;;;;5.80;3.00;;;11.10;55.40;;;;;;5094285;28;20663;-76
2023/04/04 13:40:44;;;;;;;5.43;2.90;;;12.10;52.00;;;;;;5095473;28;20511;-76
2023/04/04 13:43:11;;;;;;;3.40;2.63;;;10.70;49.20;;;;;;5095701;28;20215;-76
2023/04/04 13:45:37;;;;;;;3.57;2.87;;;9.60;54.70;;;;;;5096101;28;20164;-75
2023/04/04 13:48:03;;;;;;;5.53;2.60;;;10.50;54.40;;;;;;5095379;28;20218;-76
2023/04/04 13:50:31;;;;;;;3.63;2.47;;;11.70;51.80;;;;;;5093757;28;20211;-76
2023/04/04 13:52:57;;;;;;;2.90;2.60;;;12.30;54.50;;;;;;5095238;28;20199;-76
2023/04/04 13:55:23;;;;;;;3.70;3.00;;;12.60;51.50;;;;;;5095347;28;20164;-75
2023/04/04 13:57:49;;;;;;;2.93;2.47;;;12.20;50.00;;;;;;5094563;28;20526;-75
2023/04/04 14:00:15;;;;;;;3.67;2.83;;;11.90;50.30;;;;;;5094117;28;20169;-75
2023/04/04 14:02:41;;;;;;;4.33;3.43;;;11.80;51.90;;;;;;5095229;28;20193;-75
2023/04/04 14:05:07;;;;;;;3.27;2.60;;;12.50;51.20;;;;;;5095199;28;20174;-76
2023/04/04 14:07:33;;;;;;;4.13;2.70;;;12.70;48.20;;;;;;5095622;28;20169;-76
2023/04/04 14:09:58;;;;;;;3.03;2.70;;;12.30;49.50;;;;;;5094879;28;20193;-75
2023/04/04 14:12:24;;;;;;;3.60;2.93;;;12.60;49.10;;;;;;5094875;28;20618;-75
2023/04/04 14:14:50;;;;;;;6.20;3.10;;;11.50;48.20;;;;;;5094854;28;20172;-76
2023/04/04 14:17:16;;;;;;;3.17;2.50;;;10.40;50.30;;;;;;5095166;28;20164;-75
2023/04/04 14:19:42;;;;;;;4.00;2.90;;;9.00;52.20;;;;;;5094560;28;20255;-75
2023/04/04 14:22:08;;;;;;;3.50;2.90;;;9.50;53.10;;;;;;5094637;28;20207;-75
2023/04/04 14:24:34;;;;;;;4.70;2.83;;;10.70;52.70;;;;;;5094607;28;20257;-76
2023/04/04 14:27:00;;;;;;;3.63;2.87;;;11.90;54.70;;;;;;5094399;28;20176;-76
2023/04/04 14:29:25;;;;;;;3.77;2.70;;;12.50;52.60;;;;;;5094536;28;20695;-75
2023/04/04 14:31:51;;;;;;;3.80;2.60;;;11.20;51.30;;;;;;5094299;28;20203;-75
2023/04/04 14:34:17;;;;;;;4.90;3.03;;;10.30;52.60;;;;;;5094662;28;20213;-75
2023/04/04 14:36:42;;;;;;;3.37;2.53;;;8.70;52.80;;;;;;5093143;28;20187;-75
2023/04/04 14:39:08;;;;;;;3.57;2.73;;;7.40;55.90;;;;;;5094503;28;20225;-75
2023/04/04 14:41:34;;;;;;;2.97;2.67;;;8.80;54.90;;;;;;5093980;28;20192;-75
2023/04/04 14:43:59;;;;;;;2.97;2.67;;;10.30;51.80;;;;;;5094460;28;20172;-76
2023/04/04 14:46:25;;;;;;;6.90;2.90;;;10.40;53.00;;;;;;5094247;28;20263;-75
2023/04/04 14:48:52;;;;;;;6.50;2.80;;;11.30;53.20;;;;;;5094636;28;20153;-76
2023/04/04 14:51:18;;;;;;;3.83;3.20;;;11.90;51.70;;;;;;5093908;28;20254;-76
2023/04/04 14:53:45;;;;;;;5.83;3.00;;;11.30;51.30;;;;;;5092852;28;20260;-76
2023/04/04 14:56:11;;;;;;;3.60;2.70;;;10.40;52.60;;;;;;5092790;28;20169;-76
2023/04/04 14:58:37;;;;;;;4.37;3.13;;;10.00;53.80;;;;;;5092825;28;20510;-74
2023/04/04 15:01:04;;;;;;;6.20;3.97;;;9.20;56.10;;;;;;5093368;28;20204;-76
2023/04/04 15:03:30;;;;;;;3.80;3.00;;;7.80;57.10;;;;;;5093887;28;20222;-76
2023/04/04 15:05:56;;;;;;;3.60;3.17;;;7.70;59.80;;;;;;5093934;28;20582;-76
2023/04/04 15:08:22;;;;;;;3.43;2.80;;;7.50;57.80;;;;;;5094448;28;20262;-76
2023/04/04 15:10:48;;;;;;;3.13;2.77;;;8.10;56.80;;;;;;5094018;28;20200;-78
2023/04/04 15:13:13;;;;;;;6.27;3.10;;;9.10;55.90;;;;;;5092583;28;20653;-76
2023/04/04 15:15:39;;;;;;;4.07;2.40;;;9.80;56.20;;;;;;5092680;28;20313;-75
2023/04/04 15:18:05;;;;;;;8.17;2.70;;;10.20;53.60;;;;;;5094169;28;20168;-75
2023/04/04 15:20:30;;;;;;;3.10;2.77;;;9.90;53.70;;;;;;5093722;28;20179;-75
2023/04/04 15:22:56;;;;;;;5.40;2.80;;;10.00;53.30;;;;;;5093606;28;20192;-76
2023/04/04 15:25:22;;;;;;;4.90;2.73;;;10.30;53.20;;;;;;5093700;28;20179;-76
2023/04/04 15:27:47;;;;;;;3.90;2.70;;;10.10;50.80;;;;;;5093629;28;20508;-76
2023/04/04 15:30:14;;;;;;;4.33;2.63;;;10.30;52.00;;;;;;5091947;28;20672;-76
2023/04/04 15:32:40;;;;;;;2.87;2.37;;;10.60;50.10;;;;;;5093548;28;20223;-76
2023/04/04 15:35:13;;;;;;;3.80;2.63;;;10.70;50.00;;;;;;5093724;28;20204;-76
2023/04/04 15:37:39;;;;;;;6.90;2.80;;;10.90;50.80;;;;;;5093890;28;20555;-76
2023/04/04 15:40:05;;;;;;;3.30;2.67;;;10.50;50.70;;;;;;5092533;28;20173;-75
2023/04/04 15:42:31;;;;;;;3.53;2.57;;;9.80;53.70;;;;;;5092555;28;20291;-76
2023/04/04 15:44:56;;;;;;;3.73;3.00;;;9.60;53.10;;;;;;5093868;28;20582;-76
2023/04/04 15:47:22;;;;;;;3.73;2.93;;;8.50;52.70;;;;;;5093561;28;20254;-76
2023/04/04 15:49:47;;;;;;;5.97;3.57;;;7.10;55.90;;;;;;5093573;28;20234;-75
2023/04/04 15:52:13;;;;;;;4.70;2.77;;;5.80;59.00;;;;;;5093324;28;20227;-75
2023/04/04 15:54:39;;;;;;;3.17;2.63;;;4.90;61.40;;;;;;5093973;28;20185;-75
2023/04/04 15:57:05;;;;;;;4.03;2.93;;;4.50;62.30;;;;;;5092984;28;20172;-75
2023/04/04 15:59:30;;;;;;;3.50;2.40;;;4.30;61.80;;;;;;5091171;28;20590;-74
2023/04/04 16:01:56;;;;;;;4.70;2.80;;;4.10;60.80;;;;;;5093178;28;20198;-75
2023/04/04 16:04:22;;;;;;;4.00;3.20;;;4.00;61.90;;;;;;5091989;28;20182;-76
2023/04/04 16:06:47;;;;;;;3.37;3.03;;;3.90;61.90;;;;;;5093614;28;20688;-75
2023/04/04 16:09:13;;;;;;;4.97;3.07;;;3.90;62.80;;;;;;5093838;28;20174;-75
2023/04/04 16:11:39;;;;;;;4.57;3.30;;;3.80;63.40;;;;;;5092336;28;20219;-75
2023/04/04 16:14:08;;;;;;;5.23;3.57;;;3.90;66.00;;;;;;5097246;28;20264;-75
2023/04/04 16:16:34;;;;;;;5.87;3.00;;;3.60;66.70;;;;;;5096781;28;20582;-75
2023/04/04 16:19:00;;;;;;;4.13;3.13;;;3.50;66.70;;;;;;5098111;28;20609;-74
2023/04/04 16:21:26;;;;;;;6.43;3.80;;;;;;;;;;5096892;28;20180;-75
2023/04/04 16:23:52;;;;;;;3.80;3.40;;;3.50;67.50;;;;;;5097340;28;20682;-75
2023/04/04 16:26:19;;;;;;;5.97;3.80;;;3.50;67.00;;;;;;5097104;28;20174;-75
2023/04/04 16:28:46;;;;;;;5.53;3.80;;;;;;;;;;5097377;28;20180;-75
2023/04/04 16:31:13;;;;;;;4.00;3.60;;;;;;;;;;5097153;28;20450;-75
2023/04/04 16:33:39;;;;;;;4.50;3.27;;;3.10;78.20;;;;;;5097272;28;20404;-75
2023/04/04 16:36:05;;;;;;;6.37;3.90;;;3.10;66.70;;;;;;5096894;28;20191;-74
